Flight Briefing for CPX263

Departure Arrival
Washington Dulles International Airport (KIAD)
Click to view FAA NOTAMS
General Edward Lawrence Logan International Airport (KBOS)
Click to view FAA NOTAMS
Departure Time Arrival Time
N/A N/A
Aircraft Distance
B767-300BDSF 359nm
Departure METAR Arrival METAR
KIAD 200852Z 00000KT 10SM OVC250 M02/M06 A3037 RMK AO2 SLP287 T10221061 58006 KBOS 200854Z 28004KT 10SM FEW085 02/M09 A3040 RMK AO2 SLP294 T00171089 55003 $
Suggested Route
JCOBY3 SWANN BROSS J42 RBV J222 JFK ROBUC3


View recent IFR Routes data
Notes



Charts and Procedures

Charts for KIAD
No chart available
Charts for KBOS
No chart available

Windy.com Weather Map